sensor_id;sensor_type;location;lat;lon;timestamp;P1;durP1;ratioP1;P2;durP2;ratioP2
82387;SDS011;72027;47.420;9.310;2023-09-30T00:02:19;40.28;;;16.15;;
82387;SDS011;72027;47.420;9.310;2023-09-30T00:04:47;46.72;;;18.83;;
82387;SDS011;72027;47.420;9.310;2023-09-30T00:07:15;46.40;;;19.45;;
82387;SDS011;72027;47.420;9.310;2023-09-30T00:09:42;40.85;;;17.63;;
82387;SDS011;72027;47.420;9.310;2023-09-30T00:12:10;38.08;;;16.52;;
82387;SDS011;72027;47.420;9.310;2023-09-30T00:14:39;43.25;;;17.33;;
82387;SDS011;72027;47.420;9.310;2023-09-30T00:17:08;43.30;;;17.63;;
82387;SDS011;72027;47.420;9.310;2023-09-30T00:19:36;43.05;;;16.60;;
82387;SDS011;72027;47.420;9.310;2023-09-30T00:22:03;43.38;;;17.40;;
82387;SDS011;72027;47.420;9.310;2023-09-30T00:24:31;36.95;;;15.57;;
82387;SDS011;72027;47.420;9.310;2023-09-30T00:27:00;38.72;;;15.55;;
82387;SDS011;72027;47.420;9.310;2023-09-30T00:29:28;40.90;;;16.33;;
82387;SDS011;72027;47.420;9.310;2023-09-30T00:31:55;38.50;;;15.82;;
82387;SDS011;72027;47.420;9.310;2023-09-30T00:34:25;40.08;;;16.75;;
82387;SDS011;72027;47.420;9.310;2023-09-30T00:36:52;42.28;;;17.05;;
82387;SDS011;72027;47.420;9.310;2023-09-30T00:39:20;44.50;;;16.35;;
82387;SDS011;72027;47.420;9.310;2023-09-30T00:41:49;40.67;;;16.80;;
82387;SDS011;72027;47.420;9.310;2023-09-30T00:44:16;39.00;;;15.77;;
82387;SDS011;72027;47.420;9.310;2023-09-30T00:46:44;34.25;;;14.27;;
82387;SDS011;72027;47.420;9.310;2023-09-30T00:49:13;35.90;;;14.13;;
82387;SDS011;72027;47.420;9.310;2023-09-30T00:51:43;33.00;;;14.13;;
82387;SDS011;72027;47.420;9.310;2023-09-30T00:54:13;35.38;;;13.15;;
82387;SDS011;72027;47.420;9.310;2023-09-30T00:56:44;32.70;;;12.15;;
82387;SDS011;72027;47.420;9.310;2023-09-30T00:59:13;28.40;;;12.32;;
82387;SDS011;72027;47.420;9.310;2023-09-30T01:01:41;33.53;;;13.20;;
82387;SDS011;72027;47.420;9.310;2023-09-30T01:04:09;32.70;;;12.45;;
82387;SDS011;72027;47.420;9.310;2023-09-30T01:06:39;27.45;;;11.68;;
82387;SDS011;72027;47.420;9.310;2023-09-30T01:09:08;27.33;;;12.45;;
82387;SDS011;72027;47.420;9.310;2023-09-30T01:11:36;33.17;;;13.43;;
82387;SDS011;72027;47.420;9.310;2023-09-30T01:14:04;41.28;;;14.70;;
82387;SDS011;72027;47.420;9.310;2023-09-30T01:16:32;25.67;;;11.02;;
82387;SDS011;72027;47.420;9.310;2023-09-30T01:19:00;38.83;;;14.20;;
82387;SDS011;72027;47.420;9.310;2023-09-30T01:21:29;36.58;;;14.70;;
82387;SDS011;72027;47.420;9.310;2023-09-30T01:23:58;38.47;;;14.20;;
82387;SDS011;72027;47.420;9.310;2023-09-30T01:26:26;28.98;;;11.73;;
82387;SDS011;72027;47.420;9.310;2023-09-30T01:28:54;26.40;;;11.55;;
82387;SDS011;72027;47.420;9.310;2023-09-30T01:31:22;28.85;;;11.82;;
82387;SDS011;72027;47.420;9.310;2023-09-30T01:33:49;31.10;;;11.25;;
82387;SDS011;72027;47.420;9.310;2023-09-30T01:36:20;32.42;;;11.80;;
82387;SDS011;72027;47.420;9.310;2023-09-30T01:38:48;34.60;;;12.55;;
82387;SDS011;72027;47.420;9.310;2023-09-30T01:41:17;33.33;;;13.68;;
82387;SDS011;72027;47.420;9.310;2023-09-30T01:43:45;34.95;;;12.95;;
82387;SDS011;72027;47.420;9.310;2023-09-30T01:46:13;33.15;;;13.70;;
82387;SDS011;72027;47.420;9.310;2023-09-30T01:48:41;36.55;;;13.23;;
82387;SDS011;72027;47.420;9.310;2023-09-30T01:51:09;37.80;;;14.32;;
82387;SDS011;72027;47.420;9.310;2023-09-30T01:53:37;40.67;;;15.27;;
82387;SDS011;72027;47.420;9.310;2023-09-30T01:56:06;39.70;;;15.05;;
82387;SDS011;72027;47.420;9.310;2023-09-30T01:58:35;44.67;;;15.25;;
82387;SDS011;72027;47.420;9.310;2023-09-30T02:01:03;39.97;;;15.38;;
82387;SDS011;72027;47.420;9.310;2023-09-30T02:03:31;34.83;;;14.68;;
82387;SDS011;72027;47.420;9.310;2023-09-30T02:05:59;40.88;;;16.15;;
82387;SDS011;72027;47.420;9.310;2023-09-30T02:08:27;42.75;;;17.23;;
82387;SDS011;72027;47.420;9.310;2023-09-30T02:10:55;48.30;;;18.58;;
82387;SDS011;72027;47.420;9.310;2023-09-30T02:13:22;48.72;;;17.42;;
82387;SDS011;72027;47.420;9.310;2023-09-30T02:15:52;44.95;;;17.67;;
82387;SDS011;72027;47.420;9.310;2023-09-30T02:18:21;51.72;;;19.45;;
82387;SDS011;72027;47.420;9.310;2023-09-30T02:20:49;46.30;;;18.35;;
82387;SDS011;72027;47.420;9.310;2023-09-30T02:23:19;44.67;;;16.48;;
82387;SDS011;72027;47.420;9.310;2023-09-30T02:25:47;42.33;;;16.27;;
82387;SDS011;72027;47.420;9.310;2023-09-30T02:28:15;40.28;;;16.55;;
82387;SDS011;72027;47.420;9.310;2023-09-30T02:30:44;37.67;;;15.65;;
82387;SDS011;72027;47.420;9.310;2023-09-30T02:33:13;32.20;;;13.93;;
82387;SDS011;72027;47.420;9.310;2023-09-30T02:35:43;40.00;;;15.10;;
82387;SDS011;72027;47.420;9.310;2023-09-30T02:38:11;38.70;;;14.73;;
82387;SDS011;72027;47.420;9.310;2023-09-30T02:40:42;35.75;;;13.60;;
82387;SDS011;72027;47.420;9.310;2023-09-30T02:43:12;37.45;;;14.15;;
82387;SDS011;72027;47.420;9.310;2023-09-30T02:45:40;32.15;;;12.85;;
82387;SDS011;72027;47.420;9.310;2023-09-30T02:48:08;33.92;;;13.68;;
82387;SDS011;72027;47.420;9.310;2023-09-30T02:50:37;37.60;;;15.40;;
82387;SDS011;72027;47.420;9.310;2023-09-30T02:53:06;30.83;;;13.43;;
82387;SDS011;72027;47.420;9.310;2023-09-30T02:55:34;30.23;;;12.85;;
82387;SDS011;72027;47.420;9.310;2023-09-30T02:58:02;32.28;;;13.95;;
82387;SDS011;72027;47.420;9.310;2023-09-30T03:00:30;31.95;;;14.00;;
82387;SDS011;72027;47.420;9.310;2023-09-30T03:03:01;33.33;;;14.73;;
82387;SDS011;72027;47.420;9.310;2023-09-30T03:05:30;38.88;;;15.18;;
82387;SDS011;72027;47.420;9.310;2023-09-30T03:08:01;30.67;;;13.63;;
82387;SDS011;72027;47.420;9.310;2023-09-30T03:10:29;31.48;;;11.77;;
82387;SDS011;72027;47.420;9.310;2023-09-30T03:12:57;36.97;;;14.73;;
82387;SDS011;72027;47.420;9.310;2023-09-30T03:15:27;43.33;;;16.10;;
82387;SDS011;72027;47.420;9.310;2023-09-30T03:17:57;34.20;;;13.65;;
82387;SDS011;72027;47.420;9.310;2023-09-30T03:20:26;33.85;;;14.32;;
82387;SDS011;72027;47.420;9.310;2023-09-30T03:22:54;34.50;;;13.95;;
82387;SDS011;72027;47.420;9.310;2023-09-30T03:25:23;33.22;;;13.00;;
82387;SDS011;72027;47.420;9.310;2023-09-30T03:27:51;32.42;;;13.52;;
82387;SDS011;72027;47.420;9.310;2023-09-30T03:30:19;40.50;;;15.27;;
82387;SDS011;72027;47.420;9.310;2023-09-30T03:32:47;38.17;;;14.43;;
82387;SDS011;72027;47.420;9.310;2023-09-30T03:35:15;47.92;;;15.98;;
82387;SDS011;72027;47.420;9.310;2023-09-30T03:37:44;40.65;;;15.85;;
82387;SDS011;72027;47.420;9.310;2023-09-30T03:40:13;36.13;;;14.30;;
82387;SDS011;72027;47.420;9.310;2023-09-30T03:42:47;35.72;;;13.98;;
82387;SDS011;72027;47.420;9.310;2023-09-30T03:45:16;31.13;;;13.50;;
82387;SDS011;72027;47.420;9.310;2023-09-30T03:47:45;37.45;;;13.73;;
82387;SDS011;72027;47.420;9.310;2023-09-30T03:50:14;28.52;;;11.32;;
82387;SDS011;72027;47.420;9.310;2023-09-30T03:52:42;33.67;;;12.68;;
82387;SDS011;72027;47.420;9.310;2023-09-30T03:55:12;34.10;;;11.85;;
82387;SDS011;72027;47.420;9.310;2023-09-30T03:57:42;25.60;;;10.32;;
82387;SDS011;72027;47.420;9.310;2023-09-30T04:00:12;29.27;;;11.85;;
82387;SDS011;72027;47.420;9.310;2023-09-30T04:02:45;27.85;;;11.23;;
82387;SDS011;72027;47.420;9.310;2023-09-30T04:05:16;24.30;;;10.05;;
82387;SDS011;72027;47.420;9.310;2023-09-30T04:07:45;21.55;;;9.80;;
82387;SDS011;72027;47.420;9.310;2023-09-30T04:10:13;29.70;;;11.02;;
82387;SDS011;72027;47.420;9.310;2023-09-30T04:12:42;33.58;;;12.32;;
82387;SDS011;72027;47.420;9.310;2023-09-30T04:15:10;26.92;;;11.50;;
82387;SDS011;72027;47.420;9.310;2023-09-30T04:17:39;24.17;;;10.38;;
82387;SDS011;72027;47.420;9.310;2023-09-30T04:20:07;26.65;;;11.15;;
82387;SDS011;72027;47.420;9.310;2023-09-30T04:22:37;28.58;;;10.98;;
82387;SDS011;72027;47.420;9.310;2023-09-30T04:25:06;23.58;;;9.60;;
82387;SDS011;72027;47.420;9.310;2023-09-30T04:27:37;26.40;;;9.95;;
82387;SDS011;72027;47.420;9.310;2023-09-30T04:30:05;22.17;;;8.52;;
82387;SDS011;72027;47.420;9.310;2023-09-30T04:32:37;26.08;;;10.63;;
82387;SDS011;72027;47.420;9.310;2023-09-30T04:35:05;27.80;;;11.15;;
82387;SDS011;72027;47.420;9.310;2023-09-30T04:37:35;25.33;;;9.68;;
82387;SDS011;72027;47.420;9.310;2023-09-30T04:40:03;22.30;;;9.65;;
82387;SDS011;72027;47.420;9.310;2023-09-30T04:42:41;26.58;;;10.70;;
82387;SDS011;72027;47.420;9.310;2023-09-30T04:45:10;24.70;;;9.82;;
82387;SDS011;72027;47.420;9.310;2023-09-30T04:47:40;29.58;;;11.13;;
82387;SDS011;72027;47.420;9.310;2023-09-30T04:50:11;25.00;;;9.30;;
82387;SDS011;72027;47.420;9.310;2023-09-30T04:52:42;21.55;;;8.88;;
82387;SDS011;72027;47.420;9.310;2023-09-30T04:55:11;25.65;;;9.60;;
82387;SDS011;72027;47.420;9.310;2023-09-30T04:57:42;21.55;;;8.65;;
82387;SDS011;72027;47.420;9.310;2023-09-30T05:00:12;23.20;;;8.27;;
82387;SDS011;72027;47.420;9.310;2023-09-30T05:02:42;26.48;;;10.05;;
82387;SDS011;72027;47.420;9.310;2023-09-30T05:05:12;21.33;;;7.85;;
82387;SDS011;72027;47.420;9.310;2023-09-30T05:07:41;22.02;;;9.60;;
82387;SDS011;72027;47.420;9.310;2023-09-30T05:10:10;22.17;;;8.88;;
82387;SDS011;72027;47.420;9.310;2023-09-30T05:12:42;22.55;;;9.38;;
82387;SDS011;72027;47.420;9.310;2023-09-30T05:15:12;21.27;;;8.85;;
82387;SDS011;72027;47.420;9.310;2023-09-30T05:17:43;23.83;;;9.43;;
82387;SDS011;72027;47.420;9.310;2023-09-30T05:20:14;22.25;;;7.82;;
82387;SDS011;72027;47.420;9.310;2023-09-30T05:22:44;19.48;;;7.07;;
82387;SDS011;72027;47.420;9.310;2023-09-30T05:25:13;18.35;;;7.53;;
82387;SDS011;72027;47.420;9.310;2023-09-30T05:27:42;19.33;;;7.00;;
82387;SDS011;72027;47.420;9.310;2023-09-30T05:30:11;21.42;;;7.90;;
82387;SDS011;72027;47.420;9.310;2023-09-30T05:32:41;19.52;;;8.82;;
82387;SDS011;72027;47.420;9.310;2023-09-30T05:35:10;28.85;;;8.82;;
82387;SDS011;72027;47.420;9.310;2023-09-30T05:37:39;24.95;;;8.30;;
82387;SDS011;72027;47.420;9.310;2023-09-30T05:40:08;20.20;;;8.43;;
82387;SDS011;72027;47.420;9.310;2023-09-30T05:42:43;24.58;;;8.63;;
82387;SDS011;72027;47.420;9.310;2023-09-30T05:45:11;21.17;;;7.82;;
82387;SDS011;72027;47.420;9.310;2023-09-30T05:47:40;20.90;;;7.18;;
82387;SDS011;72027;47.420;9.310;2023-09-30T05:50:08;17.73;;;8.13;;
82387;SDS011;72027;47.420;9.310;2023-09-30T05:52:42;18.75;;;7.18;;
82387;SDS011;72027;47.420;9.310;2023-09-30T05:55:11;19.77;;;8.05;;
82387;SDS011;72027;47.420;9.310;2023-09-30T05:57:38;18.02;;;7.28;;
82387;SDS011;72027;47.420;9.310;2023-09-30T06:00:07;20.15;;;7.65;;
82387;SDS011;72027;47.420;9.310;2023-09-30T06:02:41;20.02;;;7.95;;
82387;SDS011;72027;47.420;9.310;2023-09-30T06:05:10;22.75;;;8.02;;
82387;SDS011;72027;47.420;9.310;2023-09-30T06:07:38;15.70;;;6.75;;
82387;SDS011;72027;47.420;9.310;2023-09-30T06:10:09;18.92;;;7.80;;
82387;SDS011;72027;47.420;9.310;2023-09-30T06:12:37;19.17;;;7.32;;
82387;SDS011;72027;47.420;9.310;2023-09-30T06:15:06;19.98;;;8.02;;
82387;SDS011;72027;47.420;9.310;2023-09-30T06:17:35;20.92;;;7.35;;
82387;SDS011;72027;47.420;9.310;2023-09-30T06:20:04;18.27;;;7.47;;
82387;SDS011;72027;47.420;9.310;2023-09-30T06:22:36;20.48;;;8.05;;
82387;SDS011;72027;47.420;9.310;2023-09-30T06:25:04;20.70;;;7.45;;
82387;SDS011;72027;47.420;9.310;2023-09-30T06:27:34;23.55;;;8.88;;
82387;SDS011;72027;47.420;9.310;2023-09-30T06:30:02;23.27;;;8.85;;
82387;SDS011;72027;47.420;9.310;2023-09-30T06:32:31;24.70;;;9.50;;
82387;SDS011;72027;47.420;9.310;2023-09-30T06:34:59;24.55;;;9.27;;
82387;SDS011;72027;47.420;9.310;2023-09-30T06:37:27;22.17;;;8.68;;
82387;SDS011;72027;47.420;9.310;2023-09-30T06:39:55;21.80;;;8.60;;
82387;SDS011;72027;47.420;9.310;2023-09-30T06:42:24;26.13;;;9.70;;
82387;SDS011;72027;47.420;9.310;2023-09-30T06:44:54;22.85;;;8.88;;
82387;SDS011;72027;47.420;9.310;2023-09-30T06:47:22;28.98;;;11.23;;
82387;SDS011;72027;47.420;9.310;2023-09-30T06:49:50;22.73;;;8.80;;
82387;SDS011;72027;47.420;9.310;2023-09-30T06:52:18;24.83;;;10.00;;
82387;SDS011;72027;47.420;9.310;2023-09-30T06:54:46;25.27;;;8.98;;
82387;SDS011;72027;47.420;9.310;2023-09-30T06:57:14;24.15;;;7.63;;
82387;SDS011;72027;47.420;9.310;2023-09-30T06:59:42;22.23;;;8.98;;
82387;SDS011;72027;47.420;9.310;2023-09-30T07:02:11;23.05;;;9.02;;
82387;SDS011;72027;47.420;9.310;2023-09-30T07:04:39;23.58;;;9.05;;
82387;SDS011;72027;47.420;9.310;2023-09-30T07:07:07;21.55;;;8.35;;
82387;SDS011;72027;47.420;9.310;2023-09-30T07:09:36;23.50;;;9.35;;
82387;SDS011;72027;47.420;9.310;2023-09-30T07:12:04;21.00;;;8.18;;
82387;SDS011;72027;47.420;9.310;2023-09-30T07:14:32;24.98;;;8.30;;
82387;SDS011;72027;47.420;9.310;2023-09-30T07:17:00;21.77;;;7.80;;
82387;SDS011;72027;47.420;9.310;2023-09-30T07:19:32;24.25;;;9.15;;
82387;SDS011;72027;47.420;9.310;2023-09-30T07:21:59;23.33;;;9.63;;
82387;SDS011;72027;47.420;9.310;2023-09-30T07:24:30;19.77;;;7.93;;
82387;SDS011;72027;47.420;9.310;2023-09-30T07:26:58;22.77;;;8.63;;
82387;SDS011;72027;47.420;9.310;2023-09-30T07:29:28;26.30;;;8.75;;
82387;SDS011;72027;47.420;9.310;2023-09-30T07:31:55;26.60;;;9.75;;
82387;SDS011;72027;47.420;9.310;2023-09-30T07:34:23;24.92;;;8.95;;
82387;SDS011;72027;47.420;9.310;2023-09-30T07:36:52;25.92;;;9.10;;
82387;SDS011;72027;47.420;9.310;2023-09-30T07:39:21;23.05;;;9.27;;
82387;SDS011;72027;47.420;9.310;2023-09-30T07:41:49;26.20;;;8.43;;
82387;SDS011;72027;47.420;9.310;2023-09-30T07:44:17;24.05;;;8.65;;
82387;SDS011;72027;47.420;9.310;2023-09-30T07:46:45;22.25;;;8.27;;
82387;SDS011;72027;47.420;9.310;2023-09-30T07:49:13;21.60;;;8.05;;
82387;SDS011;72027;47.420;9.310;2023-09-30T07:51:41;25.35;;;8.73;;
82387;SDS011;72027;47.420;9.310;2023-09-30T07:54:10;20.15;;;7.95;;
82387;SDS011;72027;47.420;9.310;2023-09-30T07:56:55;20.48;;;7.03;;
82387;SDS011;72027;47.420;9.310;2023-09-30T07:59:24;24.98;;;8.95;;
82387;SDS011;72027;47.420;9.310;2023-09-30T08:01:51;23.65;;;9.18;;
82387;SDS011;72027;47.420;9.310;2023-09-30T08:04:20;24.92;;;8.60;;
82387;SDS011;72027;47.420;9.310;2023-09-30T08:06:48;22.27;;;8.00;;
82387;SDS011;72027;47.420;9.310;2023-09-30T08:09:18;21.85;;;8.27;;
82387;SDS011;72027;47.420;9.310;2023-09-30T08:11:46;28.20;;;9.20;;
82387;SDS011;72027;47.420;9.310;2023-09-30T08:14:15;19.65;;;8.32;;
82387;SDS011;72027;47.420;9.310;2023-09-30T08:16:43;23.58;;;9.13;;
82387;SDS011;72027;47.420;9.310;2023-09-30T08:19:11;20.77;;;9.50;;
82387;SDS011;72027;47.420;9.310;2023-09-30T08:21:38;27.15;;;9.30;;
82387;SDS011;72027;47.420;9.310;2023-09-30T08:24:06;29.15;;;9.48;;
82387;SDS011;72027;47.420;9.310;2023-09-30T08:26:36;27.20;;;8.52;;
82387;SDS011;72027;47.420;9.310;2023-09-30T08:29:04;22.83;;;8.88;;
82387;SDS011;72027;47.420;9.310;2023-09-30T08:31:34;21.05;;;7.80;;
82387;SDS011;72027;47.420;9.310;2023-09-30T08:34:08;23.23;;;8.32;;
82387;SDS011;72027;47.420;9.310;2023-09-30T08:36:41;22.02;;;8.15;;
82387;SDS011;72027;47.420;9.310;2023-09-30T08:39:10;17.67;;;7.15;;
82387;SDS011;72027;47.420;9.310;2023-09-30T08:41:40;20.90;;;7.72;;
82387;SDS011;72027;47.420;9.310;2023-09-30T08:44:10;26.75;;;8.40;;
82387;SDS011;72027;47.420;9.310;2023-09-30T08:46:39;22.45;;;8.48;;
82387;SDS011;72027;47.420;9.310;2023-09-30T08:49:08;20.05;;;8.57;;
82387;SDS011;72027;47.420;9.310;2023-09-30T08:51:37;23.70;;;8.48;;
82387;SDS011;72027;47.420;9.310;2023-09-30T08:54:06;24.92;;;9.55;;
82387;SDS011;72027;47.420;9.310;2023-09-30T08:56:34;25.02;;;8.98;;
82387;SDS011;72027;47.420;9.310;2023-09-30T08:59:04;26.42;;;9.30;;
82387;SDS011;72027;47.420;9.310;2023-09-30T09:01:31;24.55;;;9.70;;
82387;SDS011;72027;47.420;9.310;2023-09-30T09:03:59;23.90;;;8.73;;
82387;SDS011;72027;47.420;9.310;2023-09-30T09:06:29;24.25;;;10.00;;
82387;SDS011;72027;47.420;9.310;2023-09-30T09:09:12;26.70;;;9.05;;
82387;SDS011;72027;47.420;9.310;2023-09-30T09:11:40;22.40;;;9.25;;
82387;SDS011;72027;47.420;9.310;2023-09-30T09:14:09;25.85;;;10.52;;
82387;SDS011;72027;47.420;9.310;2023-09-30T09:16:37;22.52;;;9.18;;
82387;SDS011;72027;47.420;9.310;2023-09-30T09:19:18;27.30;;;9.32;;
82387;SDS011;72027;47.420;9.310;2023-09-30T09:21:56;24.77;;;8.98;;
82387;SDS011;72027;47.420;9.310;2023-09-30T09:24:28;24.92;;;9.95;;
82387;SDS011;72027;47.420;9.310;2023-09-30T09:27:03;25.33;;;9.45;;
82387;SDS011;72027;47.420;9.310;2023-09-30T09:29:33;22.13;;;9.02;;
82387;SDS011;72027;47.420;9.310;2023-09-30T09:32:09;26.40;;;9.60;;
82387;SDS011;72027;47.420;9.310;2023-09-30T09:34:37;28.20;;;9.98;;
82387;SDS011;72027;47.420;9.310;2023-09-30T09:37:15;23.42;;;9.85;;
82387;SDS011;72027;47.420;9.310;2023-09-30T09:39:51;20.48;;;9.20;;
82387;SDS011;72027;47.420;9.310;2023-09-30T09:42:26;24.90;;;9.27;;
82387;SDS011;72027;47.420;9.310;2023-09-30T09:44:59;23.92;;;9.50;;
82387;SDS011;72027;47.420;9.310;2023-09-30T09:47:29;22.45;;;8.90;;
82387;SDS011;72027;47.420;9.310;2023-09-30T09:49:59;35.45;;;10.30;;
82387;SDS011;72027;47.420;9.310;2023-09-30T09:52:27;22.83;;;9.13;;
82387;SDS011;72027;47.420;9.310;2023-09-30T09:54:56;20.73;;;8.88;;
82387;SDS011;72027;47.420;9.310;2023-09-30T09:57:25;25.85;;;10.15;;
82387;SDS011;72027;47.420;9.310;2023-09-30T09:59:59;26.70;;;9.20;;
82387;SDS011;72027;47.420;9.310;2023-09-30T10:02:32;26.00;;;9.82;;
82387;SDS011;72027;47.420;9.310;2023-09-30T10:05:00;23.20;;;9.13;;
82387;SDS011;72027;47.420;9.310;2023-09-30T10:07:33;27.35;;;10.25;;
82387;SDS011;72027;47.420;9.310;2023-09-30T10:10:05;22.48;;;9.32;;
82387;SDS011;72027;47.420;9.310;2023-09-30T10:12:40;26.10;;;9.30;;
82387;SDS011;72027;47.420;9.310;2023-09-30T10:18:08;25.48;;;9.35;;
82387;SDS011;72027;47.420;9.310;2023-09-30T10:20:41;22.92;;;8.27;;
82387;SDS011;72027;47.420;9.310;2023-09-30T10:23:24;21.42;;;8.60;;
82387;SDS011;72027;47.420;9.310;2023-09-30T10:25:54;24.10;;;9.68;;
82387;SDS011;72027;47.420;9.310;2023-09-30T10:28:44;25.88;;;10.40;;
82387;SDS011;72027;47.420;9.310;2023-09-30T10:31:18;27.98;;;10.38;;
82387;SDS011;72027;47.420;9.310;2023-09-30T10:36:52;23.95;;;9.45;;
82387;SDS011;72027;47.420;9.310;2023-09-30T10:48:36;28.27;;;9.80;;
82387;SDS011;72027;47.420;9.310;2023-09-30T10:51:12;25.00;;;10.02;;
82387;SDS011;72027;47.420;9.310;2023-09-30T10:53:43;23.85;;;9.15;;
82387;SDS011;72027;47.420;9.310;2023-09-30T10:56:12;26.50;;;9.90;;
82387;SDS011;72027;47.420;9.310;2023-09-30T10:58:41;25.33;;;10.85;;
82387;SDS011;72027;47.420;9.310;2023-09-30T11:01:10;31.48;;;11.57;;
82387;SDS011;72027;47.420;9.310;2023-09-30T11:03:41;25.40;;;10.93;;
82387;SDS011;72027;47.420;9.310;2023-09-30T11:06:13;27.92;;;10.32;;
82387;SDS011;72027;47.420;9.310;2023-09-30T11:08:44;28.02;;;10.43;;
82387;SDS011;72027;47.420;9.310;2023-09-30T11:11:13;24.40;;;10.20;;
82387;SDS011;72027;47.420;9.310;2023-09-30T11:13:42;23.65;;;9.68;;
82387;SDS011;72027;47.420;9.310;2023-09-30T11:16:10;24.60;;;10.25;;
82387;SDS011;72027;47.420;9.310;2023-09-30T11:18:40;23.50;;;10.55;;
82387;SDS011;72027;47.420;9.310;2023-09-30T11:21:09;24.73;;;10.95;;
82387;SDS011;72027;47.420;9.310;2023-09-30T11:23:40;23.25;;;10.45;;
82387;SDS011;72027;47.420;9.310;2023-09-30T11:26:08;27.30;;;11.20;;
82387;SDS011;72027;47.420;9.310;2023-09-30T11:28:37;26.52;;;10.82;;
82387;SDS011;72027;47.420;9.310;2023-09-30T11:31:10;24.40;;;10.70;;
82387;SDS011;72027;47.420;9.310;2023-09-30T11:33:48;27.70;;;11.93;;
82387;SDS011;72027;47.420;9.310;2023-09-30T11:36:20;26.95;;;10.95;;
82387;SDS011;72027;47.420;9.310;2023-09-30T11:38:49;27.05;;;11.70;;
82387;SDS011;72027;47.420;9.310;2023-09-30T11:41:19;29.75;;;11.15;;
82387;SDS011;72027;47.420;9.310;2023-09-30T11:43:58;24.42;;;10.85;;
82387;SDS011;72027;47.420;9.310;2023-09-30T11:46:47;23.40;;;9.98;;
82387;SDS011;72027;47.420;9.310;2023-09-30T11:49:28;26.20;;;10.45;;
82387;SDS011;72027;47.420;9.310;2023-09-30T11:51:58;21.40;;;10.20;;
82387;SDS011;72027;47.420;9.310;2023-09-30T11:54:31;22.23;;;10.25;;
82387;SDS011;72027;47.420;9.310;2023-09-30T11:57:00;33.83;;;10.75;;
82387;SDS011;72027;47.420;9.310;2023-09-30T11:59:29;25.73;;;10.98;;
82387;SDS011;72027;47.420;9.310;2023-09-30T12:01:57;26.73;;;11.40;;
82387;SDS011;72027;47.420;9.310;2023-09-30T12:04:40;27.30;;;11.18;;
82387;SDS011;72027;47.420;9.310;2023-09-30T12:07:09;26.38;;;11.88;;
82387;SDS011;72027;47.420;9.310;2023-09-30T12:09:37;26.33;;;11.05;;
82387;SDS011;72027;47.420;9.310;2023-09-30T12:12:06;25.35;;;11.15;;
82387;SDS011;72027;47.420;9.310;2023-09-30T12:14:36;25.02;;;11.63;;
82387;SDS011;72027;47.420;9.310;2023-09-30T12:17:04;24.73;;;11.57;;
82387;SDS011;72027;47.420;9.310;2023-09-30T12:19:32;27.92;;;10.82;;
82387;SDS011;72027;47.420;9.310;2023-09-30T12:22:03;31.15;;;11.65;;
82387;SDS011;72027;47.420;9.310;2023-09-30T12:24:31;27.50;;;11.27;;
82387;SDS011;72027;47.420;9.310;2023-09-30T12:26:59;26.58;;;11.07;;
82387;SDS011;72027;47.420;9.310;2023-09-30T12:29:26;26.52;;;12.45;;
82387;SDS011;72027;47.420;9.310;2023-09-30T12:31:54;30.38;;;12.60;;
82387;SDS011;72027;47.420;9.310;2023-09-30T12:34:22;27.90;;;11.93;;
82387;SDS011;72027;47.420;9.310;2023-09-30T12:36:52;29.15;;;11.82;;
82387;SDS011;72027;47.420;9.310;2023-09-30T12:39:21;22.95;;;10.85;;
82387;SDS011;72027;47.420;9.310;2023-09-30T12:41:52;28.55;;;11.80;;
82387;SDS011;72027;47.420;9.310;2023-09-30T12:44:20;32.42;;;12.80;;
82387;SDS011;72027;47.420;9.310;2023-09-30T12:46:49;26.02;;;11.70;;
82387;SDS011;72027;47.420;9.310;2023-09-30T12:49:17;28.35;;;12.45;;
82387;SDS011;72027;47.420;9.310;2023-09-30T12:51:46;26.52;;;11.23;;
82387;SDS011;72027;47.420;9.310;2023-09-30T12:54:14;26.17;;;11.57;;
82387;SDS011;72027;47.420;9.310;2023-09-30T12:56:45;26.45;;;12.55;;
82387;SDS011;72027;47.420;9.310;2023-09-30T12:59:14;26.27;;;11.48;;
82387;SDS011;72027;47.420;9.310;2023-09-30T13:01:42;29.55;;;13.43;;
82387;SDS011;72027;47.420;9.310;2023-09-30T13:04:11;27.17;;;12.15;;
82387;SDS011;72027;47.420;9.310;2023-09-30T13:06:39;33.05;;;12.73;;
82387;SDS011;72027;47.420;9.310;2023-09-30T13:09:07;25.63;;;11.82;;
82387;SDS011;72027;47.420;9.310;2023-09-30T13:11:35;28.20;;;11.45;;
82387;SDS011;72027;47.420;9.310;2023-09-30T13:14:05;27.83;;;10.93;;
82387;SDS011;72027;47.420;9.310;2023-09-30T13:16:33;27.27;;;11.27;;
82387;SDS011;72027;47.420;9.310;2023-09-30T13:19:00;28.08;;;11.35;;
82387;SDS011;72027;47.420;9.310;2023-09-30T13:21:29;30.10;;;12.02;;
82387;SDS011;72027;47.420;9.310;2023-09-30T13:23:57;27.10;;;11.65;;
82387;SDS011;72027;47.420;9.310;2023-09-30T13:26:26;28.27;;;11.38;;
82387;SDS011;72027;47.420;9.310;2023-09-30T13:28:53;25.52;;;10.85;;
82387;SDS011;72027;47.420;9.310;2023-09-30T13:31:23;26.83;;;10.57;;
82387;SDS011;72027;47.420;9.310;2023-09-30T13:33:50;30.13;;;11.55;;
82387;SDS011;72027;47.420;9.310;2023-09-30T13:36:18;28.42;;;12.05;;
82387;SDS011;72027;47.420;9.310;2023-09-30T13:38:46;27.70;;;11.30;;
82387;SDS011;72027;47.420;9.310;2023-09-30T13:41:15;24.08;;;11.50;;
82387;SDS011;72027;47.420;9.310;2023-09-30T13:43:43;25.23;;;10.95;;
82387;SDS011;72027;47.420;9.310;2023-09-30T13:46:11;23.35;;;11.30;;
82387;SDS011;72027;47.420;9.310;2023-09-30T13:48:41;26.27;;;11.65;;
82387;SDS011;72027;47.420;9.310;2023-09-30T13:51:09;27.05;;;11.20;;
82387;SDS011;72027;47.420;9.310;2023-09-30T13:53:37;23.20;;;11.00;;
82387;SDS011;72027;47.420;9.310;2023-09-30T13:56:06;27.88;;;10.93;;
82387;SDS011;72027;47.420;9.310;2023-09-30T13:58:34;27.30;;;10.25;;
82387;SDS011;72027;47.420;9.310;2023-09-30T14:01:02;25.23;;;10.45;;
82387;SDS011;72027;47.420;9.310;2023-09-30T14:03:30;24.65;;;10.70;;
82387;SDS011;72027;47.420;9.310;2023-09-30T14:06:00;24.75;;;10.68;;
82387;SDS011;72027;47.420;9.310;2023-09-30T14:08:27;23.33;;;10.45;;
82387;SDS011;72027;47.420;9.310;2023-09-30T14:10:56;22.52;;;10.95;;
82387;SDS011;72027;47.420;9.310;2023-09-30T14:13:24;27.55;;;11.35;;
82387;SDS011;72027;47.420;9.310;2023-09-30T14:15:52;22.02;;;10.80;;
82387;SDS011;72027;47.420;9.310;2023-09-30T14:18:20;24.27;;;10.90;;
82387;SDS011;72027;47.420;9.310;2023-09-30T14:20:47;28.90;;;11.98;;
82387;SDS011;72027;47.420;9.310;2023-09-30T14:23:18;21.98;;;9.57;;
82387;SDS011;72027;47.420;9.310;2023-09-30T14:25:45;25.08;;;11.20;;
82387;SDS011;72027;47.420;9.310;2023-09-30T14:28:13;24.17;;;10.15;;
82387;SDS011;72027;47.420;9.310;2023-09-30T14:30:41;24.40;;;9.70;;
82387;SDS011;72027;47.420;9.310;2023-09-30T14:33:10;20.60;;;10.27;;
82387;SDS011;72027;47.420;9.310;2023-09-30T14:35:38;22.52;;;10.40;;
82387;SDS011;72027;47.420;9.310;2023-09-30T14:38:05;25.13;;;10.48;;
82387;SDS011;72027;47.420;9.310;2023-09-30T14:40:37;24.80;;;10.38;;
82387;SDS011;72027;47.420;9.310;2023-09-30T14:43:06;32.63;;;10.65;;
82387;SDS011;72027;47.420;9.310;2023-09-30T14:45:36;30.25;;;10.98;;
82387;SDS011;72027;47.420;9.310;2023-09-30T14:48:05;25.33;;;10.20;;
82387;SDS011;72027;47.420;9.310;2023-09-30T14:50:34;24.95;;;9.73;;
82387;SDS011;72027;47.420;9.310;2023-09-30T14:53:03;22.58;;;9.32;;
82387;SDS011;72027;47.420;9.310;2023-09-30T14:55:31;27.85;;;10.48;;